Forside
METAR-TAF:

METAR-TAF

Lufthavne :

Isle of Man,

Breddekreds: 54-05N, længdekreds: 004-38W, højde: 17 m

Aktuelle vejr

Denne rapport blev lavet for 51 minutter siden, kl. 01:50 UTC
Vind 1 kt fra vest
Temperatur 11°C
Fugtighed 94%
Tryk 1032 hPa
Sigt 10 km eller mere
Overskyet i en højde af 400 ft

METAR: EGNS 250150Z 28001KT 9999 OVC004 11/10 Q1032

Tid: 03:41 (02:41 UTC)

Vejrudsigter

Denne rapport blev lavet for 9 timer og 41 minutter siden, kl. 17:00 UTC
Foreløbig gælder fra 24 på 18 UTC til 24 på 21 UTC
Vind 9 kt fra sydsydvest
Sigt 10 km eller mere
Nogle få skyer i en højde af 3000 ft

TAF: EGNS 241700Z 2418/2421 21009KT 9999 FEW030

Vejrobservationer og prognoser fra mere end 4000 lufthavne (METAR og TAF).

De gule og røde prikker repræsenterer de meteorologiske stationer.

Flyt musen over at se navnet på stationen.

Så klik over at se vejr observationer og prognoser.

At skifte det kort: Klik på de grønne knapper med et sort kors for at zoome ind; på den grønne knap med en bindestreg for at zoome ud; eller på de grønne pile for tilstødende kort.


METAR-TAF: